createdAt,value
2023-03-08T00:00:07.315Z,55.18
2023-03-08T00:02:38.169Z,55.28
2023-03-08T00:05:06.563Z,54.87
2023-03-08T00:07:33.654Z,54.07
2023-03-08T00:10:03.045Z,54.89
2023-03-08T00:12:29.936Z,54.40
2023-03-08T00:14:57.414Z,54.84
2023-03-08T00:17:24.627Z,54.42
2023-03-08T00:19:52.258Z,54.42
2023-03-08T00:22:19.347Z,54.76
2023-03-08T00:24:46.404Z,53.65
2023-03-08T00:27:15.690Z,53.67
2023-03-08T00:29:42.693Z,52.95
2023-03-08T00:32:09.989Z,53.47
2023-03-08T00:34:37.167Z,54.17
2023-03-08T00:37:03.982Z,54.00
2023-03-08T00:42:21.415Z,54.68
2023-03-08T00:44:49.323Z,54.34
2023-03-08T00:47:16.994Z,53.15
2023-03-08T00:49:44.156Z,53.02
2023-03-08T00:52:11.424Z,53.59
2023-03-08T00:55:10.439Z,53.25
2023-03-08T01:01:51.988Z,52.54
2023-03-08T01:04:18.832Z,52.38
2023-03-08T01:06:45.489Z,53.30
2023-03-08T01:09:12.792Z,52.85
2023-03-08T01:11:40.149Z,52.94
2023-03-08T01:14:10.532Z,53.11
2023-03-08T01:16:44.846Z,52.60
2023-03-08T01:19:13.543Z,52.43
2023-03-08T01:21:41.991Z,52.24
2023-03-08T01:24:08.916Z,52.37
2023-03-08T01:26:35.808Z,53.40
2023-03-08T01:29:02.627Z,52.57
2023-03-08T01:31:30.855Z,53.01
2023-03-08T01:33:59.388Z,53.06
2023-03-08T01:36:28.464Z,52.51
2023-03-08T01:39:19.893Z,53.29
2023-03-08T01:44:54.802Z,52.63
2023-03-08T01:47:23.853Z,52.30
2023-03-08T01:53:14.991Z,52.14
2023-03-08T01:55:43.647Z,51.97
2023-03-08T02:01:10.288Z,51.79
2023-03-08T02:03:37.318Z,51.74
2023-03-08T02:08:45.591Z,51.65
2023-03-08T02:11:16.283Z,51.02
2023-03-08T02:16:46.281Z,51.56
2023-03-08T02:19:20.973Z,51.37
2023-03-08T02:21:48.016Z,51.01
2023-03-08T02:24:21.525Z,51.33
2023-03-08T02:26:51.736Z,51.37
2023-03-08T02:29:19.293Z,51.81
2023-03-08T02:31:46.929Z,51.58
2023-03-08T02:34:13.951Z,52.07
2023-03-08T02:36:43.315Z,51.96
2023-03-08T02:39:11.266Z,52.21
2023-03-08T02:41:39.844Z,51.97
2023-03-08T02:44:06.832Z,52.11
2023-03-08T02:46:36.804Z,52.04
2023-03-08T02:49:03.547Z,52.09
2023-03-08T02:51:30.514Z,51.54
2023-03-08T02:53:58.787Z,51.76
2023-03-08T02:56:26.207Z,51.56
2023-03-08T02:58:56.106Z,51.43
2023-03-08T03:01:25.308Z,51.39
2023-03-08T03:03:54.255Z,51.81
2023-03-08T03:06:22.425Z,51.95
2023-03-08T03:08:52.825Z,51.77
2023-03-08T03:11:22.331Z,52.47
2023-03-08T03:13:55.482Z,53.39
2023-03-08T03:16:23.488Z,53.39
2023-03-08T03:18:52.591Z,52.91
2023-03-08T03:21:19.989Z,53.09
2023-03-08T03:23:47.081Z,52.66
2023-03-08T03:26:21.642Z,53.32
2023-03-08T03:28:52.684Z,53.62
2023-03-08T03:31:23.378Z,53.03
2023-03-08T03:33:53.358Z,52.77
2023-03-08T03:36:24.789Z,53.68
2023-03-08T03:38:52.426Z,53.86
2023-03-08T03:41:22.810Z,54.54
2023-03-08T03:43:59.251Z,54.67
2023-03-08T03:46:27.400Z,54.51
2023-03-08T03:48:59.013Z,54.25
2023-03-08T03:51:32.078Z,54.15
2023-03-08T03:54:12.484Z,54.80
2023-03-08T03:56:41.173Z,54.74
2023-03-08T03:59:08.164Z,54.87
2023-03-08T04:01:35.116Z,55.08
2023-03-08T04:04:12.855Z,55.08
2023-03-08T04:06:43.597Z,54.65
2023-03-08T04:09:16.418Z,54.70
2023-03-08T04:11:46.113Z,54.86
2023-03-08T04:14:18.023Z,55.44
2023-03-08T04:16:45.704Z,55.25
2023-03-08T04:19:23.345Z,55.32
2023-03-08T04:21:53.458Z,55.95
2023-03-08T04:24:24.307Z,56.01
2023-03-08T04:26:55.237Z,55.90
2023-03-08T04:29:24.870Z,55.52
2023-03-08T04:31:51.814Z,55.58
2023-03-08T04:34:20.546Z,55.87
2023-03-08T04:36:51.361Z,55.64
2023-03-08T04:39:18.962Z,55.60
2023-03-08T04:41:46.075Z,55.77
2023-03-08T04:44:26.071Z,56.01
2023-03-08T04:46:53.312Z,56.03
2023-03-08T04:49:30.221Z,55.99
2023-03-08T04:52:02.217Z,56.14
2023-03-08T04:54:30.020Z,56.86
2023-03-08T04:57:02.403Z,57.48
2023-03-08T04:59:31.079Z,57.35
2023-03-08T05:02:01.057Z,57.06
2023-03-08T05:04:29.864Z,57.57
2023-03-08T05:06:56.683Z,57.42
2023-03-08T05:09:27.166Z,57.22
2023-03-08T05:11:54.032Z,57.14
2023-03-08T05:14:22.390Z,57.38
2023-03-08T05:16:49.992Z,57.58
2023-03-08T05:19:17.037Z,57.32
2023-03-08T05:21:49.164Z,57.12
2023-03-08T05:24:16.359Z,57.47
2023-03-08T05:26:44.698Z,57.52
2023-03-08T05:29:15.756Z,57.55
2023-03-08T05:31:45.450Z,57.30
2023-03-08T05:34:13.795Z,57.79
2023-03-08T05:36:45.179Z,57.62
2023-03-08T05:39:12.057Z,58.31
2023-03-08T05:41:50.470Z,57.96
2023-03-08T05:44:23.743Z,57.82
2023-03-08T05:46:51.314Z,57.45
2023-03-08T05:49:19.583Z,57.37
2023-03-08T05:51:46.683Z,57.71
2023-03-08T05:54:14.199Z,57.55
2023-03-08T05:56:43.072Z,57.44
2023-03-08T05:59:26.244Z,57.44
2023-03-08T06:01:55.220Z,57.49
2023-03-08T06:04:31.177Z,57.43
2023-03-08T06:06:59.344Z,57.31
2023-03-08T06:09:32.597Z,57.34
2023-03-08T06:12:00.002Z,57.43
2023-03-08T06:14:28.125Z,57.48
2023-03-08T06:16:56.045Z,57.50
2023-03-08T06:19:25.527Z,57.16
2023-03-08T06:21:54.142Z,57.24
2023-03-08T06:24:21.191Z,57.37
2023-03-08T06:26:48.369Z,57.26
2023-03-08T06:29:16.699Z,56.86
2023-03-08T06:31:46.234Z,57.80
2023-03-08T06:34:14.828Z,57.35
2023-03-08T06:36:42.365Z,57.25
2023-03-08T06:39:10.430Z,57.54
2023-03-08T06:41:38.324Z,57.32
2023-03-08T06:44:06.030Z,57.65
2023-03-08T06:46:32.751Z,57.35
2023-03-08T06:49:01.551Z,57.90
2023-03-08T06:51:29.365Z,57.68
2023-03-08T06:53:56.184Z,57.79
2023-03-08T06:56:28.325Z,57.56
2023-03-08T06:58:56.564Z,57.39
2023-03-08T07:01:23.432Z,57.46
2023-03-08T07:03:52.505Z,57.40
2023-03-08T07:06:20.928Z,57.31
2023-03-08T07:08:48.147Z,57.37
2023-03-08T07:11:15.158Z,57.27
2023-03-08T07:13:42.207Z,56.71
2023-03-08T07:16:10.586Z,56.73
2023-03-08T07:18:38.265Z,57.35
2023-03-08T07:21:06.516Z,57.25
2023-03-08T07:23:34.977Z,57.00
2023-03-08T07:26:05.760Z,57.07
2023-03-08T07:28:32.896Z,57.00
2023-03-08T07:31:03.007Z,57.05
2023-03-08T07:33:30.042Z,57.21
2023-03-08T07:36:02.408Z,56.51
2023-03-08T07:38:29.870Z,57.04
2023-03-08T07:40:58.534Z,56.36
2023-03-08T07:46:16.316Z,55.76
2023-03-08T07:48:43.333Z,55.99
2023-03-08T07:51:10.412Z,55.65
2023-03-08T07:56:35.690Z,56.02
2023-03-08T08:01:49.075Z,55.99
2023-03-08T08:04:16.231Z,55.58
2023-03-08T08:06:43.158Z,55.68
2023-03-08T08:12:11.986Z,55.29
2023-03-08T08:14:40.140Z,54.97
2023-03-08T08:19:49.574Z,54.44
2023-03-08T08:22:22.273Z,53.44
2023-03-08T08:24:56.973Z,53.23
2023-03-08T08:27:33.266Z,52.77
2023-03-08T08:43:56.217Z,51.61
2023-03-08T08:51:50.351Z,51.62
2023-03-08T08:54:18.037Z,52.12
2023-03-08T08:59:58.581Z,51.65
2023-03-08T09:21:10.475Z,50.72
2023-03-08T09:54:41.719Z,49.76
2023-03-08T10:06:58.945Z,49.76
2023-03-08T10:31:16.702Z,49.55
2023-03-08T14:03:26.489Z,46.73
2023-03-08T14:05:55.965Z,46.47
2023-03-08T14:08:27.525Z,46.97
2023-03-08T14:11:28.141Z,47.10
2023-03-08T14:23:27.575Z,46.68
2023-03-08T15:23:24.078Z,47.10
